sensor_id;sensor_type;location;lat;lon;timestamp;P1;durP1;ratioP1;P2;durP2;ratioP2
33413;SDS011;60055;41.884;12.534;2022-10-31T00:00:49;27.95;;;9.57;;
33413;SDS011;60055;41.884;12.534;2022-10-31T00:03:16;18.40;;;8.88;;
33413;SDS011;60055;41.884;12.534;2022-10-31T00:05:43;17.85;;;9.50;;
33413;SDS011;60055;41.884;12.534;2022-10-31T00:08:10;21.88;;;9.63;;
33413;SDS011;60055;41.884;12.534;2022-10-31T00:10:39;17.45;;;9.18;;
33413;SDS011;60055;41.884;12.534;2022-10-31T00:13:05;19.88;;;9.60;;
33413;SDS011;60055;41.884;12.534;2022-10-31T00:15:32;20.70;;;9.82;;
33413;SDS011;60055;41.884;12.534;2022-10-31T00:17:59;21.25;;;9.25;;
33413;SDS011;60055;41.884;12.534;2022-10-31T00:20:24;19.98;;;9.52;;
33413;SDS011;60055;41.884;12.534;2022-10-31T00:22:50;23.98;;;10.10;;
33413;SDS011;60055;41.884;12.534;2022-10-31T00:25:15;24.02;;;9.85;;
33413;SDS011;60055;41.884;12.534;2022-10-31T00:27:41;22.73;;;10.65;;
33413;SDS011;60055;41.884;12.534;2022-10-31T00:30:07;29.08;;;9.85;;
33413;SDS011;60055;41.884;12.534;2022-10-31T00:32:32;21.10;;;9.70;;
33413;SDS011;60055;41.884;12.534;2022-10-31T00:34:58;17.17;;;9.32;;
33413;SDS011;60055;41.884;12.534;2022-10-31T00:37:24;19.70;;;8.82;;
33413;SDS011;60055;41.884;12.534;2022-10-31T00:39:49;23.48;;;9.65;;
33413;SDS011;60055;41.884;12.534;2022-10-31T00:42:15;22.00;;;9.95;;
33413;SDS011;60055;41.884;12.534;2022-10-31T00:44:40;23.63;;;9.32;;
33413;SDS011;60055;41.884;12.534;2022-10-31T00:47:06;16.73;;;8.38;;
33413;SDS011;60055;41.884;12.534;2022-10-31T00:49:32;18.95;;;8.02;;
33413;SDS011;60055;41.884;12.534;2022-10-31T00:51:57;16.17;;;8.32;;
33413;SDS011;60055;41.884;12.534;2022-10-31T00:54:23;18.95;;;8.32;;
33413;SDS011;60055;41.884;12.534;2022-10-31T00:56:49;16.63;;;7.35;;
33413;SDS011;60055;41.884;12.534;2022-10-31T00:59:14;22.50;;;7.65;;
33413;SDS011;60055;41.884;12.534;2022-10-31T01:01:40;13.57;;;6.70;;
33413;SDS011;60055;41.884;12.534;2022-10-31T01:04:06;20.83;;;6.60;;
33413;SDS011;60055;41.884;12.534;2022-10-31T01:06:31;17.92;;;6.70;;
33413;SDS011;60055;41.884;12.534;2022-10-31T01:08:57;16.10;;;6.50;;
33413;SDS011;60055;41.884;12.534;2022-10-31T01:11:23;13.13;;;7.07;;
33413;SDS011;60055;41.884;12.534;2022-10-31T01:13:50;15.48;;;6.95;;
33413;SDS011;60055;41.884;12.534;2022-10-31T01:16:17;17.55;;;7.07;;
33413;SDS011;60055;41.884;12.534;2022-10-31T01:18:45;13.63;;;6.78;;
33413;SDS011;60055;41.884;12.534;2022-10-31T01:23:38;14.95;;;6.10;;
33413;SDS011;60055;41.884;12.534;2022-10-31T01:26:05;13.82;;;6.05;;
33413;SDS011;60055;41.884;12.534;2022-10-31T01:28:35;14.38;;;5.95;;
33413;SDS011;60055;41.884;12.534;2022-10-31T01:31:06;15.45;;;6.53;;
33413;SDS011;60055;41.884;12.534;2022-10-31T01:33:34;14.68;;;6.57;;
33413;SDS011;60055;41.884;12.534;2022-10-31T01:36:01;13.18;;;6.25;;
33413;SDS011;60055;41.884;12.534;2022-10-31T01:38:36;12.75;;;6.65;;
33413;SDS011;60055;41.884;12.534;2022-10-31T01:41:01;14.93;;;6.53;;
33413;SDS011;60055;41.884;12.534;2022-10-31T01:46:14;14.90;;;6.35;;
33413;SDS011;60055;41.884;12.534;2022-10-31T01:48:42;19.67;;;6.45;;
33413;SDS011;60055;41.884;12.534;2022-10-31T01:51:08;12.15;;;6.18;;
33413;SDS011;60055;41.884;12.534;2022-10-31T01:53:37;12.60;;;5.88;;
33413;SDS011;60055;41.884;12.534;2022-10-31T01:56:07;14.02;;;6.43;;
33413;SDS011;60055;41.884;12.534;2022-10-31T01:58:33;12.95;;;6.70;;
33413;SDS011;60055;41.884;12.534;2022-10-31T02:01:00;15.02;;;6.45;;
33413;SDS011;60055;41.884;12.534;2022-10-31T02:03:27;15.55;;;6.53;;
33413;SDS011;60055;41.884;12.534;2022-10-31T02:05:54;13.63;;;6.40;;
33413;SDS011;60055;41.884;12.534;2022-10-31T02:08:23;12.57;;;6.60;;
33413;SDS011;60055;41.884;12.534;2022-10-31T02:10:58;11.27;;;5.95;;
33413;SDS011;60055;41.884;12.534;2022-10-31T02:13:25;15.20;;;6.28;;
33413;SDS011;60055;41.884;12.534;2022-10-31T02:15:55;17.40;;;6.75;;
33413;SDS011;60055;41.884;12.534;2022-10-31T02:18:23;14.82;;;6.25;;
33413;SDS011;60055;41.884;12.534;2022-10-31T02:29:08;14.32;;;6.15;;
33413;SDS011;60055;41.884;12.534;2022-10-31T02:40:22;14.07;;;6.40;;
33413;SDS011;60055;41.884;12.534;2022-10-31T02:43:08;15.15;;;6.00;;
33413;SDS011;60055;41.884;12.534;2022-10-31T02:45:44;11.25;;;5.80;;
33413;SDS011;60055;41.884;12.534;2022-10-31T02:48:11;13.13;;;5.50;;
33413;SDS011;60055;41.884;12.534;2022-10-31T02:50:43;16.95;;;5.80;;
33413;SDS011;60055;41.884;12.534;2022-10-31T02:53:15;12.23;;;6.40;;
33413;SDS011;60055;41.884;12.534;2022-10-31T02:58:14;12.68;;;6.13;;
33413;SDS011;60055;41.884;12.534;2022-10-31T03:05:54;16.10;;;6.40;;
33413;SDS011;60055;41.884;12.534;2022-10-31T03:08:39;14.13;;;6.47;;
33413;SDS011;60055;41.884;12.534;2022-10-31T03:11:42;12.82;;;6.20;;
33413;SDS011;60055;41.884;12.534;2022-10-31T03:14:24;12.55;;;5.97;;
33413;SDS011;60055;41.884;12.534;2022-10-31T03:16:59;15.40;;;6.30;;
33413;SDS011;60055;41.884;12.534;2022-10-31T03:19:29;15.63;;;6.25;;
33413;SDS011;60055;41.884;12.534;2022-10-31T03:24:29;14.63;;;6.05;;
33413;SDS011;60055;41.884;12.534;2022-10-31T03:26:59;13.68;;;6.05;;
33413;SDS011;60055;41.884;12.534;2022-10-31T03:29:27;12.20;;;5.88;;
33413;SDS011;60055;41.884;12.534;2022-10-31T03:31:59;12.02;;;6.07;;
33413;SDS011;60055;41.884;12.534;2022-10-31T03:34:28;14.10;;;6.40;;
33413;SDS011;60055;41.884;12.534;2022-10-31T03:36:56;13.40;;;6.30;;
33413;SDS011;60055;41.884;12.534;2022-10-31T03:39:24;19.52;;;6.72;;
33413;SDS011;60055;41.884;12.534;2022-10-31T03:41:53;12.10;;;6.10;;
33413;SDS011;60055;41.884;12.534;2022-10-31T03:44:22;14.48;;;6.63;;
33413;SDS011;60055;41.884;12.534;2022-10-31T03:46:49;17.13;;;6.03;;
33413;SDS011;60055;41.884;12.534;2022-10-31T03:49:15;13.20;;;6.03;;
33413;SDS011;60055;41.884;12.534;2022-10-31T03:51:43;11.85;;;5.68;;
33413;SDS011;60055;41.884;12.534;2022-10-31T03:56:50;14.13;;;6.43;;
33413;SDS011;60055;41.884;12.534;2022-10-31T03:59:28;12.43;;;6.32;;
33413;SDS011;60055;41.884;12.534;2022-10-31T04:04:28;10.40;;;5.68;;
33413;SDS011;60055;41.884;12.534;2022-10-31T04:06:55;11.60;;;6.05;;
33413;SDS011;60055;41.884;12.534;2022-10-31T04:09:25;18.10;;;6.32;;
33413;SDS011;60055;41.884;12.534;2022-10-31T04:11:54;11.25;;;6.25;;
33413;SDS011;60055;41.884;12.534;2022-10-31T04:14:23;10.93;;;5.78;;
33413;SDS011;60055;41.884;12.534;2022-10-31T04:16:51;13.35;;;6.22;;
33413;SDS011;60055;41.884;12.534;2022-10-31T04:19:20;14.32;;;6.47;;
33413;SDS011;60055;41.884;12.534;2022-10-31T04:21:45;20.73;;;6.57;;
33413;SDS011;60055;41.884;12.534;2022-10-31T04:24:11;13.55;;;6.80;;
33413;SDS011;60055;41.884;12.534;2022-10-31T04:26:37;14.57;;;6.63;;
33413;SDS011;60055;41.884;12.534;2022-10-31T04:29:02;14.60;;;6.32;;
33413;SDS011;60055;41.884;12.534;2022-10-31T04:31:28;15.57;;;6.78;;
33413;SDS011;60055;41.884;12.534;2022-10-31T04:33:53;13.32;;;6.22;;
33413;SDS011;60055;41.884;12.534;2022-10-31T04:36:19;12.40;;;6.03;;
33413;SDS011;60055;41.884;12.534;2022-10-31T04:38:45;17.85;;;6.90;;
33413;SDS011;60055;41.884;12.534;2022-10-31T04:41:11;16.73;;;7.05;;
33413;SDS011;60055;41.884;12.534;2022-10-31T04:43:36;13.95;;;6.70;;
33413;SDS011;60055;41.884;12.534;2022-10-31T04:46:02;13.43;;;6.60;;
33413;SDS011;60055;41.884;12.534;2022-10-31T04:48:28;17.02;;;6.35;;
33413;SDS011;60055;41.884;12.534;2022-10-31T04:50:58;16.23;;;6.72;;
33413;SDS011;60055;41.884;12.534;2022-10-31T04:53:24;16.38;;;6.75;;
33413;SDS011;60055;41.884;12.534;2022-10-31T04:55:49;12.30;;;6.22;;
33413;SDS011;60055;41.884;12.534;2022-10-31T04:58:15;15.70;;;7.35;;
33413;SDS011;60055;41.884;12.534;2022-10-31T05:00:41;14.07;;;7.38;;
33413;SDS011;60055;41.884;12.534;2022-10-31T05:03:06;13.40;;;6.90;;
33413;SDS011;60055;41.884;12.534;2022-10-31T05:05:32;13.55;;;6.57;;
33413;SDS011;60055;41.884;12.534;2022-10-31T05:07:58;20.55;;;6.53;;
33413;SDS011;60055;41.884;12.534;2022-10-31T05:10:25;14.43;;;6.43;;
33413;SDS011;60055;41.884;12.534;2022-10-31T05:12:56;15.90;;;6.75;;
33413;SDS011;60055;41.884;12.534;2022-10-31T05:15:24;15.45;;;6.88;;
33413;SDS011;60055;41.884;12.534;2022-10-31T05:17:51;11.68;;;5.95;;
33413;SDS011;60055;41.884;12.534;2022-10-31T05:20:18;16.20;;;7.00;;
33413;SDS011;60055;41.884;12.534;2022-10-31T05:22:45;13.25;;;6.60;;
33413;SDS011;60055;41.884;12.534;2022-10-31T05:25:12;15.15;;;6.55;;
33413;SDS011;60055;41.884;12.534;2022-10-31T05:27:42;16.88;;;6.90;;
33413;SDS011;60055;41.884;12.534;2022-10-31T05:30:09;23.77;;;9.02;;
33413;SDS011;60055;41.884;12.534;2022-10-31T05:32:37;16.90;;;7.30;;
33413;SDS011;60055;41.884;12.534;2022-10-31T05:35:07;18.70;;;7.03;;
33413;SDS011;60055;41.884;12.534;2022-10-31T05:37:36;18.48;;;6.82;;
33413;SDS011;60055;41.884;12.534;2022-10-31T05:40:03;13.75;;;6.32;;
33413;SDS011;60055;41.884;12.534;2022-10-31T05:42:29;17.00;;;7.00;;
33413;SDS011;60055;41.884;12.534;2022-10-31T05:44:55;16.85;;;6.90;;
33413;SDS011;60055;41.884;12.534;2022-10-31T05:47:20;15.45;;;6.65;;
33413;SDS011;60055;41.884;12.534;2022-10-31T05:49:47;17.70;;;7.25;;
33413;SDS011;60055;41.884;12.534;2022-10-31T05:52:13;15.75;;;6.88;;
33413;SDS011;60055;41.884;12.534;2022-10-31T05:54:40;15.65;;;6.90;;
33413;SDS011;60055;41.884;12.534;2022-10-31T05:57:06;14.20;;;6.53;;
33413;SDS011;60055;41.884;12.534;2022-10-31T05:59:31;14.10;;;6.45;;
33413;SDS011;60055;41.884;12.534;2022-10-31T06:01:57;18.75;;;6.43;;
33413;SDS011;60055;41.884;12.534;2022-10-31T06:04:23;16.58;;;6.57;;
33413;SDS011;60055;41.884;12.534;2022-10-31T06:06:49;13.13;;;6.78;;
33413;SDS011;60055;41.884;12.534;2022-10-31T06:09:14;14.43;;;6.18;;
33413;SDS011;60055;41.884;12.534;2022-10-31T06:11:41;12.93;;;6.55;;
33413;SDS011;60055;41.884;12.534;2022-10-31T06:14:07;16.98;;;6.40;;
33413;SDS011;60055;41.884;12.534;2022-10-31T06:16:36;19.50;;;6.28;;
33413;SDS011;60055;41.884;12.534;2022-10-31T06:19:01;15.88;;;6.55;;
33413;SDS011;60055;41.884;12.534;2022-10-31T06:21:27;15.15;;;6.78;;
33413;SDS011;60055;41.884;12.534;2022-10-31T06:23:53;21.88;;;6.90;;
33413;SDS011;60055;41.884;12.534;2022-10-31T06:26:19;15.43;;;6.25;;
33413;SDS011;60055;41.884;12.534;2022-10-31T06:28:45;13.02;;;6.13;;
33413;SDS011;60055;41.884;12.534;2022-10-31T06:31:10;18.77;;;6.78;;
33413;SDS011;60055;41.884;12.534;2022-10-31T06:33:36;15.20;;;6.57;;
33413;SDS011;60055;41.884;12.534;2022-10-31T06:36:02;21.02;;;6.72;;
33413;SDS011;60055;41.884;12.534;2022-10-31T06:38:28;16.75;;;6.35;;
33413;SDS011;60055;41.884;12.534;2022-10-31T06:40:55;12.82;;;6.18;;
33413;SDS011;60055;41.884;12.534;2022-10-31T06:43:21;14.52;;;6.65;;
33413;SDS011;60055;41.884;12.534;2022-10-31T06:45:47;14.80;;;5.93;;
33413;SDS011;60055;41.884;12.534;2022-10-31T06:48:13;15.55;;;6.75;;
33413;SDS011;60055;41.884;12.534;2022-10-31T06:50:38;13.93;;;6.80;;
33413;SDS011;60055;41.884;12.534;2022-10-31T06:53:04;16.85;;;7.85;;
33413;SDS011;60055;41.884;12.534;2022-10-31T06:55:30;19.02;;;7.60;;
33413;SDS011;60055;41.884;12.534;2022-10-31T06:57:57;18.45;;;7.40;;
33413;SDS011;60055;41.884;12.534;2022-10-31T07:00:26;18.60;;;7.40;;
33413;SDS011;60055;41.884;12.534;2022-10-31T07:02:54;15.73;;;6.72;;
33413;SDS011;60055;41.884;12.534;2022-10-31T07:05:19;18.45;;;7.13;;
33413;SDS011;60055;41.884;12.534;2022-10-31T07:07:51;14.13;;;6.55;;
33413;SDS011;60055;41.884;12.534;2022-10-31T07:10:22;15.82;;;6.78;;
33413;SDS011;60055;41.884;12.534;2022-10-31T07:12:54;18.85;;;6.90;;
33413;SDS011;60055;41.884;12.534;2022-10-31T07:15:21;14.95;;;6.25;;
33413;SDS011;60055;41.884;12.534;2022-10-31T07:17:47;13.00;;;6.47;;
33413;SDS011;60055;41.884;12.534;2022-10-31T07:20:13;14.98;;;6.57;;
33413;SDS011;60055;41.884;12.534;2022-10-31T07:22:38;12.48;;;6.00;;
33413;SDS011;60055;41.884;12.534;2022-10-31T07:25:04;16.67;;;6.28;;
33413;SDS011;60055;41.884;12.534;2022-10-31T07:27:40;15.75;;;5.85;;
33413;SDS011;60055;41.884;12.534;2022-10-31T07:30:07;11.60;;;5.40;;
33413;SDS011;60055;41.884;12.534;2022-10-31T07:32:42;12.07;;;5.88;;
33413;SDS011;60055;41.884;12.534;2022-10-31T07:35:10;15.32;;;5.45;;
33413;SDS011;60055;41.884;12.534;2022-10-31T07:37:38;13.27;;;5.45;;
33413;SDS011;60055;41.884;12.534;2022-10-31T07:40:04;13.52;;;5.60;;
33413;SDS011;60055;41.884;12.534;2022-10-31T07:42:38;16.17;;;5.65;;
33413;SDS011;60055;41.884;12.534;2022-10-31T07:45:05;13.93;;;5.57;;
33413;SDS011;60055;41.884;12.534;2022-10-31T07:47:39;11.90;;;5.50;;
33413;SDS011;60055;41.884;12.534;2022-10-31T07:50:09;13.45;;;5.97;;
33413;SDS011;60055;41.884;12.534;2022-10-31T07:52:36;19.00;;;6.18;;
33413;SDS011;60055;41.884;12.534;2022-10-31T07:55:03;16.27;;;6.47;;
33413;SDS011;60055;41.884;12.534;2022-10-31T07:57:29;20.58;;;6.35;;
33413;SDS011;60055;41.884;12.534;2022-10-31T07:59:55;15.95;;;6.22;;
33413;SDS011;60055;41.884;12.534;2022-10-31T08:02:21;19.20;;;6.38;;
33413;SDS011;60055;41.884;12.534;2022-10-31T08:04:46;13.90;;;6.00;;
33413;SDS011;60055;41.884;12.534;2022-10-31T08:07:12;13.52;;;5.65;;
33413;SDS011;60055;41.884;12.534;2022-10-31T08:09:38;11.57;;;5.97;;
33413;SDS011;60055;41.884;12.534;2022-10-31T08:12:03;18.65;;;5.85;;
33413;SDS011;60055;41.884;12.534;2022-10-31T08:14:29;16.08;;;6.13;;
33413;SDS011;60055;41.884;12.534;2022-10-31T08:16:55;15.40;;;5.50;;
33413;SDS011;60055;41.884;12.534;2022-10-31T08:19:31;15.32;;;5.38;;
33413;SDS011;60055;41.884;12.534;2022-10-31T08:21:57;14.10;;;4.80;;
33413;SDS011;60055;41.884;12.534;2022-10-31T08:24:23;20.20;;;5.40;;
33413;SDS011;60055;41.884;12.534;2022-10-31T08:26:49;17.25;;;5.40;;
33413;SDS011;60055;41.884;12.534;2022-10-31T08:29:15;15.77;;;5.20;;
33413;SDS011;60055;41.884;12.534;2022-10-31T08:31:41;14.73;;;5.05;;
33413;SDS011;60055;41.884;12.534;2022-10-31T08:34:07;18.42;;;5.90;;
33413;SDS011;60055;41.884;12.534;2022-10-31T08:36:33;13.60;;;5.60;;
33413;SDS011;60055;41.884;12.534;2022-10-31T08:38:59;16.05;;;5.07;;
33413;SDS011;60055;41.884;12.534;2022-10-31T08:41:26;13.48;;;5.35;;
33413;SDS011;60055;41.884;12.534;2022-10-31T08:43:51;9.77;;;4.50;;
33413;SDS011;60055;41.884;12.534;2022-10-31T08:46:18;14.27;;;5.05;;
33413;SDS011;60055;41.884;12.534;2022-10-31T08:48:43;15.15;;;4.50;;
33413;SDS011;60055;41.884;12.534;2022-10-31T08:51:09;10.07;;;4.70;;
33413;SDS011;60055;41.884;12.534;2022-10-31T08:53:36;12.20;;;4.50;;
33413;SDS011;60055;41.884;12.534;2022-10-31T08:56:02;13.32;;;4.50;;
33413;SDS011;60055;41.884;12.534;2022-10-31T08:58:33;19.88;;;4.65;;
33413;SDS011;60055;41.884;12.534;2022-10-31T09:01:00;11.07;;;4.43;;
33413;SDS011;60055;41.884;12.534;2022-10-31T09:03:28;14.68;;;4.80;;
33413;SDS011;60055;41.884;12.534;2022-10-31T09:06:00;16.40;;;8.77;;
33413;SDS011;60055;41.884;12.534;2022-10-31T09:08:29;14.82;;;4.43;;
33413;SDS011;60055;41.884;12.534;2022-10-31T09:10:57;12.50;;;4.93;;
33413;SDS011;60055;41.884;12.534;2022-10-31T09:13:23;17.83;;;7.25;;
33413;SDS011;60055;41.884;12.534;2022-10-31T09:15:52;10.98;;;4.80;;
33413;SDS011;60055;41.884;12.534;2022-10-31T09:18:19;14.15;;;5.03;;
33413;SDS011;60055;41.884;12.534;2022-10-31T09:20:47;13.20;;;5.30;;
33413;SDS011;60055;41.884;12.534;2022-10-31T09:23:16;13.43;;;4.78;;
33413;SDS011;60055;41.884;12.534;2022-10-31T09:25:43;16.27;;;5.40;;
33413;SDS011;60055;41.884;12.534;2022-10-31T09:28:13;16.85;;;4.97;;
33413;SDS011;60055;41.884;12.534;2022-10-31T09:30:40;15.57;;;4.38;;
33413;SDS011;60055;41.884;12.534;2022-10-31T09:33:08;13.57;;;5.13;;
33413;SDS011;60055;41.884;12.534;2022-10-31T09:35:35;14.45;;;5.13;;
33413;SDS011;60055;41.884;12.534;2022-10-31T09:38:03;13.18;;;4.50;;
33413;SDS011;60055;41.884;12.534;2022-10-31T09:40:43;12.63;;;4.53;;
33413;SDS011;60055;41.884;12.534;2022-10-31T09:43:28;14.20;;;4.68;;
33413;SDS011;60055;41.884;12.534;2022-10-31T09:48:48;15.65;;;4.05;;
33413;SDS011;60055;41.884;12.534;2022-10-31T09:53:57;13.63;;;4.13;;
33413;SDS011;60055;41.884;12.534;2022-10-31T09:56:30;10.63;;;3.97;;
33413;SDS011;60055;41.884;12.534;2022-10-31T09:58:58;12.55;;;4.60;;
33413;SDS011;60055;41.884;12.534;2022-10-31T10:04:34;16.67;;;4.25;;
33413;SDS011;60055;41.884;12.534;2022-10-31T10:07:22;8.98;;;3.92;;
33413;SDS011;60055;41.884;12.534;2022-10-31T10:09:53;13.98;;;4.22;;
33413;SDS011;60055;41.884;12.534;2022-10-31T10:12:23;14.80;;;4.05;;
33413;SDS011;60055;41.884;12.534;2022-10-31T10:26:37;10.70;;;4.00;;
33413;SDS011;60055;41.884;12.534;2022-10-31T10:32:22;19.98;;;4.35;;
33413;SDS011;60055;41.884;12.534;2022-10-31T10:34:51;16.08;;;3.92;;
33413;SDS011;60055;41.884;12.534;2022-10-31T10:37:24;12.68;;;3.80;;
33413;SDS011;60055;41.884;12.534;2022-10-31T10:40:00;11.82;;;3.90;;
33413;SDS011;60055;41.884;12.534;2022-10-31T10:45:27;11.85;;;3.97;;
33413;SDS011;60055;41.884;12.534;2022-10-31T10:51:27;13.30;;;4.10;;
33413;SDS011;60055;41.884;12.534;2022-10-31T10:54:25;9.77;;;4.22;;
33413;SDS011;60055;41.884;12.534;2022-10-31T10:59:22;15.20;;;6.60;;
33413;SDS011;60055;41.884;12.534;2022-10-31T11:01:49;13.25;;;5.07;;
33413;SDS011;60055;41.884;12.534;2022-10-31T11:04:28;13.25;;;3.75;;
33413;SDS011;60055;41.884;12.534;2022-10-31T11:07:06;12.43;;;3.30;;
33413;SDS011;60055;41.884;12.534;2022-10-31T11:09:34;10.90;;;3.58;;
33413;SDS011;60055;41.884;12.534;2022-10-31T11:12:08;8.68;;;3.65;;
33413;SDS011;60055;41.884;12.534;2022-10-31T11:14:51;14.93;;;3.55;;
33413;SDS011;60055;41.884;12.534;2022-10-31T11:20:25;13.98;;;3.55;;
33413;SDS011;60055;41.884;12.534;2022-10-31T11:23:03;11.50;;;3.33;;
33413;SDS011;60055;41.884;12.534;2022-10-31T11:26:05;30.90;;;12.85;;
33413;SDS011;60055;41.884;12.534;2022-10-31T11:28:33;11.52;;;3.80;;
33413;SDS011;60055;41.884;12.534;2022-10-31T11:31:00;12.00;;;3.67;;
33413;SDS011;60055;41.884;12.534;2022-10-31T11:33:32;11.05;;;3.20;;
33413;SDS011;60055;41.884;12.534;2022-10-31T11:36:18;6.03;;;2.83;;
33413;SDS011;60055;41.884;12.534;2022-10-31T11:38:51;13.48;;;3.35;;
33413;SDS011;60055;41.884;12.534;2022-10-31T11:41:24;8.52;;;3.10;;
33413;SDS011;60055;41.884;12.534;2022-10-31T11:49:11;9.70;;;2.80;;
33413;SDS011;60055;41.884;12.534;2022-10-31T11:51:40;11.43;;;2.92;;
33413;SDS011;60055;41.884;12.534;2022-10-31T11:54:30;7.35;;;2.80;;
33413;SDS011;60055;41.884;12.534;2022-10-31T11:56:55;10.85;;;2.45;;
33413;SDS011;60055;41.884;12.534;2022-10-31T11:59:27;7.50;;;2.53;;
33413;SDS011;60055;41.884;12.534;2022-10-31T12:01:55;7.72;;;2.58;;
33413;SDS011;60055;41.884;12.534;2022-10-31T12:04:24;14.20;;;2.38;;
33413;SDS011;60055;41.884;12.534;2022-10-31T12:06:59;12.75;;;3.95;;
33413;SDS011;60055;41.884;12.534;2022-10-31T12:09:28;6.63;;;2.53;;
33413;SDS011;60055;41.884;12.534;2022-10-31T12:12:17;11.35;;;3.28;;
33413;SDS011;60055;41.884;12.534;2022-10-31T12:23:03;9.65;;;2.75;;
33413;SDS011;60055;41.884;12.534;2022-10-31T12:28:48;8.20;;;2.65;;
33413;SDS011;60055;41.884;12.534;2022-10-31T12:36:51;9.00;;;2.92;;
33413;SDS011;60055;41.884;12.534;2022-10-31T12:39:30;7.13;;;2.38;;
33413;SDS011;60055;41.884;12.534;2022-10-31T12:50:01;11.68;;;3.30;;
33413;SDS011;60055;41.884;12.534;2022-10-31T12:52:44;7.80;;;3.22;;
33413;SDS011;60055;41.884;12.534;2022-10-31T12:55:41;17.10;;;7.35;;
33413;SDS011;60055;41.884;12.534;2022-10-31T13:04:15;10.90;;;3.03;;
33413;SDS011;60055;41.884;12.534;2022-10-31T13:06:47;8.27;;;3.33;;
33413;SDS011;60055;41.884;12.534;2022-10-31T13:09:36;14.07;;;3.22;;
33413;SDS011;60055;41.884;12.534;2022-10-31T13:12:08;11.43;;;3.40;;
33413;SDS011;60055;41.884;12.534;2022-10-31T13:14:45;10.40;;;3.20;;
33413;SDS011;60055;41.884;12.534;2022-10-31T13:17:22;8.10;;;3.13;;
33413;SDS011;60055;41.884;12.534;2022-10-31T13:20:28;9.55;;;3.30;;
33413;SDS011;60055;41.884;12.534;2022-10-31T13:23:39;11.20;;;3.60;;
33413;SDS011;60055;41.884;12.534;2022-10-31T13:25:53;8.60;;;3.40;;
33413;SDS011;60055;41.884;12.534;2022-10-31T13:28:24;7.80;;;3.72;;
33413;SDS011;60055;41.884;12.534;2022-10-31T13:30:54;15.40;;;6.25;;
33413;SDS011;60055;41.884;12.534;2022-10-31T13:33:25;8.95;;;2.80;;
33413;SDS011;60055;41.884;12.534;2022-10-31T13:38:57;9.32;;;3.65;;
33413;SDS011;60055;41.884;12.534;2022-10-31T13:41:53;10.15;;;3.60;;
33413;SDS011;60055;41.884;12.534;2022-10-31T13:44:26;11.55;;;4.50;;
33413;SDS011;60055;41.884;12.534;2022-10-31T13:46:53;14.77;;;5.30;;
33413;SDS011;60055;41.884;12.534;2022-10-31T13:52:10;11.27;;;3.92;;
33413;SDS011;60055;41.884;12.534;2022-10-31T13:54:41;17.55;;;3.75;;
33413;SDS011;60055;41.884;12.534;2022-10-31T13:57:17;11.45;;;3.92;;
33413;SDS011;60055;41.884;12.534;2022-10-31T13:59:51;14.75;;;3.80;;
33413;SDS011;60055;41.884;12.534;2022-10-31T14:02:25;14.20;;;3.83;;
33413;SDS011;60055;41.884;12.534;2022-10-31T14:05:02;14.38;;;3.85;;
33413;SDS011;60055;41.884;12.534;2022-10-31T14:07:31;22.10;;;6.05;;
33413;SDS011;60055;41.884;12.534;2022-10-31T14:12:50;13.50;;;4.47;;
33413;SDS011;60055;41.884;12.534;2022-10-31T14:15:22;11.70;;;3.90;;
33413;SDS011;60055;41.884;12.534;2022-10-31T14:18:02;15.82;;;3.88;;
33413;SDS011;60055;41.884;12.534;2022-10-31T14:25:53;12.73;;;4.00;;
33413;SDS011;60055;41.884;12.534;2022-10-31T14:28:33;16.55;;;4.53;;
33413;SDS011;60055;41.884;12.534;2022-10-31T14:31:01;13.57;;;4.45;;
33413;SDS011;60055;41.884;12.534;2022-10-31T14:33:28;15.27;;;4.97;;
33413;SDS011;60055;41.884;12.534;2022-10-31T14:36:00;16.85;;;5.10;;
33413;SDS011;60055;41.884;12.534;2022-10-31T14:47:25;18.95;;;4.57;;
33413;SDS011;60055;41.884;12.534;2022-10-31T14:50:21;13.30;;;4.43;;
33413;SDS011;60055;41.884;12.534;2022-10-31T14:52:53;14.93;;;4.50;;
33413;SDS011;60055;41.884;12.534;2022-10-31T14:55:23;18.02;;;5.00;;
33413;SDS011;60055;41.884;12.534;2022-10-31T14:58:03;11.48;;;4.38;;
33413;SDS011;60055;41.884;12.534;2022-10-31T15:00:32;14.93;;;4.53;;
33413;SDS011;60055;41.884;12.534;2022-10-31T15:05:30;15.95;;;4.88;;
33413;SDS011;60055;41.884;12.534;2022-10-31T15:07:59;16.10;;;4.22;;
33413;SDS011;60055;41.884;12.534;2022-10-31T15:10:29;18.17;;;4.43;;
33413;SDS011;60055;41.884;12.534;2022-10-31T15:13:08;16.08;;;4.40;;
33413;SDS011;60055;41.884;12.534;2022-10-31T15:15:35;12.38;;;4.43;;
33413;SDS011;60055;41.884;12.534;2022-10-31T15:18:03;21.63;;;4.53;;
33413;SDS011;60055;41.884;12.534;2022-10-31T15:20:30;16.00;;;4.70;;
33413;SDS011;60055;41.884;12.534;2022-10-31T15:23:02;12.53;;;4.73;;
33413;SDS011;60055;41.884;12.534;2022-10-31T15:25:29;13.95;;;4.00;;
33413;SDS011;60055;41.884;12.534;2022-10-31T15:27:58;13.75;;;3.92;;
33413;SDS011;60055;41.884;12.534;2022-10-31T15:30:25;16.80;;;4.32;;
33413;SDS011;60055;41.884;12.534;2022-10-31T15:32:52;17.65;;;7.25;;
33413;SDS011;60055;41.884;12.534;2022-10-31T15:35:28;13.27;;;4.50;;
33413;SDS011;60055;41.884;12.534;2022-10-31T15:37:56;12.25;;;4.00;;
33413;SDS011;60055;41.884;12.534;2022-10-31T15:40:23;20.30;;;4.68;;
33413;SDS011;60055;41.884;12.534;2022-10-31T15:42:52;12.07;;;4.82;;
33413;SDS011;60055;41.884;12.534;2022-10-31T15:45:22;16.88;;;5.20;;
33413;SDS011;60055;41.884;12.534;2022-10-31T15:52:56;13.85;;;4.35;;
33413;SDS011;60055;41.884;12.534;2022-10-31T15:55:23;14.68;;;4.80;;
33413;SDS011;60055;41.884;12.534;2022-10-31T15:57:54;12.35;;;4.72;;
33413;SDS011;60055;41.884;12.534;2022-10-31T16:00:30;16.05;;;4.50;;
33413;SDS011;60055;41.884;12.534;2022-10-31T16:03:20;13.70;;;4.90;;
33413;SDS011;60055;41.884;12.534;2022-10-31T16:05:52;15.97;;;4.90;;
33413;SDS011;60055;41.884;12.534;2022-10-31T16:10:54;13.50;;;4.43;;
33413;SDS011;60055;41.884;12.534;2022-10-31T16:13:32;15.75;;;4.63;;
33413;SDS011;60055;41.884;12.534;2022-10-31T16:16:01;13.85;;;4.50;;
33413;SDS011;60055;41.884;12.534;2022-10-31T16:18:28;14.18;;;4.53;;
33413;SDS011;60055;41.884;12.534;2022-10-31T16:21:01;13.15;;;4.80;;
33413;SDS011;60055;41.884;12.534;2022-10-31T16:23:28;17.42;;;4.60;;
33413;SDS011;60055;41.884;12.534;2022-10-31T16:25:54;15.23;;;4.97;;
33413;SDS011;60055;41.884;12.534;2022-10-31T16:28:24;16.10;;;4.20;;
33413;SDS011;60055;41.884;12.534;2022-10-31T16:30:54;18.95;;;5.10;;
33413;SDS011;60055;41.884;12.534;2022-10-31T16:33:26;14.07;;;4.50;;
33413;SDS011;60055;41.884;12.534;2022-10-31T16:35:58;16.10;;;4.53;;
33413;SDS011;60055;41.884;12.534;2022-10-31T16:38:27;33.42;;;6.55;;
33413;SDS011;60055;41.884;12.534;2022-10-31T16:40:56;21.48;;;5.75;;
33413;SDS011;60055;41.884;12.534;2022-10-31T16:43:22;17.48;;;4.78;;
33413;SDS011;60055;41.884;12.534;2022-10-31T16:45:49;16.80;;;4.35;;
33413;SDS011;60055;41.884;12.534;2022-10-31T16:48:23;16.45;;;4.78;;
33413;SDS011;60055;41.884;12.534;2022-10-31T16:50:50;13.70;;;4.90;;
33413;SDS011;60055;41.884;12.534;2022-10-31T16:53:17;15.02;;;4.70;;
33413;SDS011;60055;41.884;12.534;2022-10-31T16:55:56;22.55;;;6.25;;
33413;SDS011;60055;41.884;12.534;2022-10-31T16:58:28;24.25;;;6.22;;
33413;SDS011;60055;41.884;12.534;2022-10-31T17:00:56;17.13;;;5.88;;